sensor_id;sensor_type;location;lat;lon;timestamp;pressure;altitude;pressure_sealevel;temperature;humidity
46718;BME280;32448;44.960;-0.698;2022-08-03T00:01:26;101057.59;;;22.79;100.00
46718;BME280;32448;44.960;-0.698;2022-08-03T00:03:52;101073.44;;;22.85;100.00
46718;BME280;32448;44.960;-0.698;2022-08-03T00:06:18;101074.38;;;22.82;100.00
46718;BME280;32448;44.960;-0.698;2022-08-03T00:08:43;101071.88;;;22.76;100.00
46718;BME280;32448;44.960;-0.698;2022-08-03T00:11:09;101071.03;;;22.74;100.00
46718;BME280;32448;44.960;-0.698;2022-08-03T00:13:34;101065.88;;;22.68;100.00
46718;BME280;32448;44.960;-0.698;2022-08-03T00:18:25;101065.34;;;22.56;100.00
46718;BME280;32448;44.960;-0.698;2022-08-03T00:20:51;101064.59;;;22.50;100.00
46718;BME280;32448;44.960;-0.698;2022-08-03T00:23:16;101062.81;;;22.51;100.00
46718;BME280;32448;44.960;-0.698;2022-08-03T00:25:42;101058.66;;;22.41;100.00
46718;BME280;32448;44.960;-0.698;2022-08-03T00:28:08;101039.44;;;22.30;100.00
46718;BME280;32448;44.960;-0.698;2022-08-03T00:30:34;101051.84;;;22.31;100.00
46718;BME280;32448;44.960;-0.698;2022-08-03T00:33:00;101054.66;;;22.25;100.00
46718;BME280;32448;44.960;-0.698;2022-08-03T00:35:27;101052.06;;;22.22;100.00
46718;BME280;32448;44.960;-0.698;2022-08-03T00:37:52;101037.34;;;22.08;100.00
46718;BME280;32448;44.960;-0.698;2022-08-03T00:40:19;101046.00;;;22.17;100.00
46718;BME280;32448;44.960;-0.698;2022-08-03T00:42:55;101035.44;;;22.12;100.00
46718;BME280;32448;44.960;-0.698;2022-08-03T00:45:26;101025.16;;;21.98;100.00
46718;BME280;32448;44.960;-0.698;2022-08-03T00:47:53;101009.31;;;21.92;100.00
46718;BME280;32448;44.960;-0.698;2022-08-03T00:50:21;101034.84;;;22.01;100.00
46718;BME280;32448;44.960;-0.698;2022-08-03T00:52:49;101026.13;;;21.94;100.00
46718;BME280;32448;44.960;-0.698;2022-08-03T00:55:16;101029.72;;;21.93;100.00
46718;BME280;32448;44.960;-0.698;2022-08-03T00:57:42;101028.91;;;21.90;100.00
46718;BME280;32448;44.960;-0.698;2022-08-03T01:00:10;101022.84;;;21.85;100.00
46718;BME280;32448;44.960;-0.698;2022-08-03T01:02:38;101030.06;;;21.79;100.00
46718;BME280;32448;44.960;-0.698;2022-08-03T01:05:04;101028.34;;;21.77;100.00
46718;BME280;32448;44.960;-0.698;2022-08-03T01:10:35;101033.91;;;21.66;100.00
46718;BME280;32448;44.960;-0.698;2022-08-03T01:15:58;101043.94;;;21.55;100.00
46718;BME280;32448;44.960;-0.698;2022-08-03T01:18:42;101036.16;;;21.48;100.00
46718;BME280;32448;44.960;-0.698;2022-08-03T01:21:13;101019.47;;;21.41;100.00
46718;BME280;32448;44.960;-0.698;2022-08-03T01:24:05;101035.47;;;21.39;100.00
46718;BME280;32448;44.960;-0.698;2022-08-03T01:26:58;101025.13;;;21.27;100.00
46718;BME280;32448;44.960;-0.698;2022-08-03T01:35:00;101026.25;;;21.14;100.00
46718;BME280;32448;44.960;-0.698;2022-08-03T01:37:36;101030.81;;;21.09;100.00
46718;BME280;32448;44.960;-0.698;2022-08-03T01:40:04;101018.50;;;21.05;100.00
46718;BME280;32448;44.960;-0.698;2022-08-03T01:42:31;101024.03;;;20.96;100.00
46718;BME280;32448;44.960;-0.698;2022-08-03T01:44:58;101017.88;;;20.92;100.00
46718;BME280;32448;44.960;-0.698;2022-08-03T01:47:26;101017.03;;;20.90;100.00
46718;BME280;32448;44.960;-0.698;2022-08-03T01:49:54;101021.47;;;20.90;100.00
46718;BME280;32448;44.960;-0.698;2022-08-03T01:52:21;101010.16;;;20.82;100.00
46718;BME280;32448;44.960;-0.698;2022-08-03T01:54:50;100997.19;;;20.66;100.00
46718;BME280;32448;44.960;-0.698;2022-08-03T01:57:18;101011.16;;;20.76;100.00
46718;BME280;32448;44.960;-0.698;2022-08-03T01:59:46;101015.63;;;20.74;100.00
46718;BME280;32448;44.960;-0.698;2022-08-03T02:02:14;101014.06;;;20.65;100.00
46718;BME280;32448;44.960;-0.698;2022-08-03T02:04:41;101008.84;;;20.59;100.00
46718;BME280;32448;44.960;-0.698;2022-08-03T02:07:09;101001.69;;;20.63;100.00
46718;BME280;32448;44.960;-0.698;2022-08-03T02:09:39;101001.78;;;20.58;100.00
46718;BME280;32448;44.960;-0.698;2022-08-03T02:12:10;100997.50;;;20.53;100.00
46718;BME280;32448;44.960;-0.698;2022-08-03T02:14:38;100995.81;;;20.47;100.00
46718;BME280;32448;44.960;-0.698;2022-08-03T02:17:08;101001.09;;;20.49;100.00
46718;BME280;32448;44.960;-0.698;2022-08-03T02:19:36;100991.56;;;20.39;100.00
46718;BME280;32448;44.960;-0.698;2022-08-03T02:22:03;100996.75;;;20.45;100.00
46718;BME280;32448;44.960;-0.698;2022-08-03T02:24:30;100996.84;;;20.40;100.00
46718;BME280;32448;44.960;-0.698;2022-08-03T02:26:57;100968.88;;;20.21;100.00
46718;BME280;32448;44.960;-0.698;2022-08-03T02:29:26;100996.19;;;20.26;100.00
46718;BME280;32448;44.960;-0.698;2022-08-03T02:31:56;100998.97;;;20.21;100.00
46718;BME280;32448;44.960;-0.698;2022-08-03T02:34:26;100983.97;;;20.19;100.00
46718;BME280;32448;44.960;-0.698;2022-08-03T02:36:55;100995.47;;;20.19;100.00
46718;BME280;32448;44.960;-0.698;2022-08-03T02:39:23;100992.84;;;20.16;100.00
46718;BME280;32448;44.960;-0.698;2022-08-03T02:41:51;100992.91;;;20.12;100.00
46718;BME280;32448;44.960;-0.698;2022-08-03T02:44:23;100984.25;;;20.02;100.00
46718;BME280;32448;44.960;-0.698;2022-08-03T02:46:54;100993.09;;;20.03;100.00
46718;BME280;32448;44.960;-0.698;2022-08-03T02:49:22;100971.28;;;19.87;100.00
46718;BME280;32448;44.960;-0.698;2022-08-03T02:51:51;100984.41;;;19.94;100.00
46718;BME280;32448;44.960;-0.698;2022-08-03T02:54:18;100988.88;;;19.91;100.00
46718;BME280;32448;44.960;-0.698;2022-08-03T02:56:45;100985.50;;;19.83;100.00
46718;BME280;32448;44.960;-0.698;2022-08-03T02:59:13;100985.56;;;19.80;100.00
46718;BME280;32448;44.960;-0.698;2022-08-03T03:01:40;100988.22;;;19.78;100.00
46718;BME280;32448;44.960;-0.698;2022-08-03T03:04:06;100991.84;;;19.76;100.00
46718;BME280;32448;44.960;-0.698;2022-08-03T03:06:34;100988.47;;;19.66;100.00
46718;BME280;32448;44.960;-0.698;2022-08-03T03:09:00;100993.09;;;19.53;100.00
46718;BME280;32448;44.960;-0.698;2022-08-03T03:11:26;100982.31;;;19.62;100.00
46718;BME280;32448;44.960;-0.698;2022-08-03T03:13:54;100980.44;;;19.68;100.00
46718;BME280;32448;44.960;-0.698;2022-08-03T03:16:21;100985.84;;;19.63;100.00
46718;BME280;32448;44.960;-0.698;2022-08-03T03:18:48;100979.56;;;19.67;100.00
46718;BME280;32448;44.960;-0.698;2022-08-03T03:21:17;100988.38;;;19.69;100.00
46718;BME280;32448;44.960;-0.698;2022-08-03T03:23:44;100972.59;;;19.63;100.00
46718;BME280;32448;44.960;-0.698;2022-08-03T03:26:12;100977.03;;;19.61;100.00
46718;BME280;32448;44.960;-0.698;2022-08-03T03:28:38;100980.72;;;19.54;100.00
46718;BME280;32448;44.960;-0.698;2022-08-03T03:31:05;100966.66;;;19.46;100.00
46718;BME280;32448;44.960;-0.698;2022-08-03T03:33:35;100982.47;;;19.55;100.00
46718;BME280;32448;44.960;-0.698;2022-08-03T03:36:02;100987.03;;;19.44;100.00
46718;BME280;32448;44.960;-0.698;2022-08-03T03:38:29;100976.53;;;19.35;100.00
46718;BME280;32448;44.960;-0.698;2022-08-03T03:40:55;100979.16;;;19.38;100.00
46718;BME280;32448;44.960;-0.698;2022-08-03T03:43:22;100940.63;;;19.15;100.00
46718;BME280;32448;44.960;-0.698;2022-08-03T03:45:48;100981.78;;;19.39;100.00
46718;BME280;32448;44.960;-0.698;2022-08-03T03:48:16;100994.16;;;19.40;100.00
46718;BME280;32448;44.960;-0.698;2022-08-03T03:50:43;100988.00;;;19.38;100.00
46718;BME280;32448;44.960;-0.698;2022-08-03T03:53:09;100980.16;;;19.31;100.00
46718;BME280;32448;44.960;-0.698;2022-08-03T03:55:39;100996.84;;;19.36;100.00
46718;BME280;32448;44.960;-0.698;2022-08-03T03:58:05;100974.16;;;19.19;100.00
46718;BME280;32448;44.960;-0.698;2022-08-03T04:00:31;100987.34;;;19.22;100.00
46718;BME280;32448;44.960;-0.698;2022-08-03T04:02:57;100982.09;;;19.19;100.00
46718;BME280;32448;44.960;-0.698;2022-08-03T04:05:22;100988.34;;;19.15;100.00
46718;BME280;32448;44.960;-0.698;2022-08-03T04:08:09;100995.34;;;19.19;100.00
46718;BME280;32448;44.960;-0.698;2022-08-03T04:11:11;100999.78;;;19.19;100.00
46718;BME280;32448;44.960;-0.698;2022-08-03T04:13:41;100996.25;;;19.17;100.00
46718;BME280;32448;44.960;-0.698;2022-08-03T04:16:09;100989.22;;;19.14;100.00
46718;BME280;32448;44.960;-0.698;2022-08-03T04:18:38;100990.25;;;19.04;100.00
46718;BME280;32448;44.960;-0.698;2022-08-03T04:21:12;101003.47;;;19.07;100.00
46718;BME280;32448;44.960;-0.698;2022-08-03T04:23:43;101007.91;;;19.07;100.00
46718;BME280;32448;44.960;-0.698;2022-08-03T04:26:12;101000.91;;;19.01;100.00
46718;BME280;32448;44.960;-0.698;2022-08-03T04:28:42;100997.44;;;18.98;100.00
46718;BME280;32448;44.960;-0.698;2022-08-03T04:31:11;101000.97;;;18.98;100.00
46718;BME280;32448;44.960;-0.698;2022-08-03T04:33:38;101007.31;;;18.86;100.00
46718;BME280;32448;44.960;-0.698;2022-08-03T04:36:08;101004.63;;;18.88;100.00
46718;BME280;32448;44.960;-0.698;2022-08-03T04:38:45;101000.22;;;18.88;100.00
46718;BME280;32448;44.960;-0.698;2022-08-03T04:41:14;101007.22;;;18.91;100.00
46718;BME280;32448;44.960;-0.698;2022-08-03T04:43:40;101001.03;;;18.90;100.00
46718;BME280;32448;44.960;-0.698;2022-08-03T04:46:06;101003.75;;;18.87;100.00
46718;BME280;32448;44.960;-0.698;2022-08-03T04:48:33;101000.28;;;18.81;100.00
46718;BME280;32448;44.960;-0.698;2022-08-03T04:50:59;101000.44;;;18.69;100.00
46718;BME280;32448;44.960;-0.698;2022-08-03T04:53:25;100986.31;;;18.71;100.00
46718;BME280;32448;44.960;-0.698;2022-08-03T04:55:50;100993.38;;;18.71;100.00
46718;BME280;32448;44.960;-0.698;2022-08-03T04:58:16;100985.41;;;18.74;100.00
46718;BME280;32448;44.960;-0.698;2022-08-03T05:00:42;100989.81;;;18.73;100.00
46718;BME280;32448;44.960;-0.698;2022-08-03T05:03:09;101001.16;;;18.81;100.00
46718;BME280;32448;44.960;-0.698;2022-08-03T05:05:35;101002.94;;;18.81;100.00
46718;BME280;32448;44.960;-0.698;2022-08-03T05:08:00;100997.78;;;18.70;100.00
46718;BME280;32448;44.960;-0.698;2022-08-03T05:10:26;100994.13;;;18.79;100.00
46718;BME280;32448;44.960;-0.698;2022-08-03T05:12:52;101006.47;;;18.81;100.00
46718;BME280;32448;44.960;-0.698;2022-08-03T05:15:18;100998.41;;;18.89;100.00
46718;BME280;32448;44.960;-0.698;2022-08-03T05:17:43;101002.75;;;18.96;100.00
46718;BME280;32448;44.960;-0.698;2022-08-03T05:20:10;101016.75;;;19.06;100.00
46718;BME280;32448;44.960;-0.698;2022-08-03T05:22:35;101011.44;;;19.07;100.00
46718;BME280;32448;44.960;-0.698;2022-08-03T05:25:01;101018.41;;;19.11;100.00
46718;BME280;32448;44.960;-0.698;2022-08-03T05:27:27;101022.88;;;19.11;100.00
46718;BME280;32448;44.960;-0.698;2022-08-03T05:29:53;101022.78;;;19.15;100.00
46718;BME280;32448;44.960;-0.698;2022-08-03T05:32:18;101029.84;;;19.16;100.00
46718;BME280;32448;44.960;-0.698;2022-08-03T05:34:44;101029.78;;;19.21;100.00
46718;BME280;32448;44.960;-0.698;2022-08-03T05:37:10;101036.00;;;19.18;100.00
46718;BME280;32448;44.960;-0.698;2022-08-03T05:39:36;101042.19;;;19.17;100.00
46718;BME280;32448;44.960;-0.698;2022-08-03T05:42:02;101043.13;;;19.12;100.00
46718;BME280;32448;44.960;-0.698;2022-08-03T05:44:28;101044.81;;;19.20;100.00
46718;BME280;32448;44.960;-0.698;2022-08-03T05:46:53;101053.69;;;19.16;100.00
46718;BME280;32448;44.960;-0.698;2022-08-03T05:49:19;101058.13;;;19.14;100.00
46718;BME280;32448;44.960;-0.698;2022-08-03T05:51:45;101061.59;;;19.19;100.00
46718;BME280;32448;44.960;-0.698;2022-08-03T05:54:10;101066.03;;;19.19;100.00
46718;BME280;32448;44.960;-0.698;2022-08-03T05:56:37;101056.31;;;19.19;100.00
46718;BME280;32448;44.960;-0.698;2022-08-03T05:59:05;101032.66;;;19.04;100.00
46718;BME280;32448;44.960;-0.698;2022-08-03T06:01:31;101061.59;;;19.19;100.00
46718;BME280;32448;44.960;-0.698;2022-08-03T06:03:57;101072.09;;;19.27;100.00
46718;BME280;32448;44.960;-0.698;2022-08-03T06:06:23;101069.44;;;19.28;100.00
46718;BME280;32448;44.960;-0.698;2022-08-03T06:08:49;101075.56;;;19.32;100.00
46718;BME280;32448;44.960;-0.698;2022-08-03T06:11:15;101080.78;;;19.37;100.00
46718;BME280;32448;44.960;-0.698;2022-08-03T06:13:41;101080.66;;;19.44;100.00
46718;BME280;32448;44.960;-0.698;2022-08-03T06:16:07;101078.06;;;19.43;100.00
46718;BME280;32448;44.960;-0.698;2022-08-03T06:18:33;101074.44;;;19.51;100.00
46718;BME280;32448;44.960;-0.698;2022-08-03T06:20:59;101080.53;;;19.56;100.00
46718;BME280;32448;44.960;-0.698;2022-08-03T06:23:24;101078.66;;;19.65;100.00
46718;BME280;32448;44.960;-0.698;2022-08-03T06:25:50;101070.56;;;19.74;100.00
46718;BME280;32448;44.960;-0.698;2022-08-03T06:28:15;101078.31;;;19.86;100.00
46718;BME280;32448;44.960;-0.698;2022-08-03T06:30:44;101079.88;;;19.97;100.00
46718;BME280;32448;44.960;-0.698;2022-08-03T06:33:09;101077.06;;;20.08;100.00
46718;BME280;32448;44.960;-0.698;2022-08-03T06:35:35;101076.75;;;20.23;100.00
46718;BME280;32448;44.960;-0.698;2022-08-03T06:38:01;101081.06;;;20.32;100.00
46718;BME280;32448;44.960;-0.698;2022-08-03T06:40:27;101073.16;;;20.27;100.00
46718;BME280;32448;44.960;-0.698;2022-08-03T06:43:01;101083.59;;;20.40;100.00
46718;BME280;32448;44.960;-0.698;2022-08-03T06:45:27;101082.66;;;20.42;100.00
46718;BME280;32448;44.960;-0.698;2022-08-03T06:48:03;101080.75;;;20.50;100.00
46718;BME280;32448;44.960;-0.698;2022-08-03T06:50:30;101073.59;;;20.54;100.00
46718;BME280;32448;44.960;-0.698;2022-08-03T06:52:56;101082.06;;;20.73;100.00
46718;BME280;32448;44.960;-0.698;2022-08-03T06:55:22;101078.28;;;20.86;100.00
46718;BME280;32448;44.960;-0.698;2022-08-03T06:57:47;101071.75;;;21.00;100.00
46718;BME280;32448;44.960;-0.698;2022-08-03T07:00:13;101082.78;;;21.24;100.00
46718;BME280;32448;44.960;-0.698;2022-08-03T07:02:39;101084.94;;;21.47;100.00
46718;BME280;32448;44.960;-0.698;2022-08-03T07:05:06;101064.16;;;21.64;100.00
46718;BME280;32448;44.960;-0.698;2022-08-03T07:07:32;101088.41;;;21.87;100.00
46718;BME280;32448;44.960;-0.698;2022-08-03T07:09:57;101090.72;;;22.02;100.00
46718;BME280;32448;44.960;-0.698;2022-08-03T07:12:23;101083.25;;;22.18;100.00
46718;BME280;32448;44.960;-0.698;2022-08-03T07:14:48;101090.19;;;22.24;100.00
46718;BME280;32448;44.960;-0.698;2022-08-03T07:17:14;101093.34;;;22.38;100.00
46718;BME280;32448;44.960;-0.698;2022-08-03T07:19:40;101092.97;;;22.53;100.00
46718;BME280;32448;44.960;-0.698;2022-08-03T07:22:05;101088.94;;;22.69;100.00
46718;BME280;32448;44.960;-0.698;2022-08-03T07:24:33;101091.91;;;22.91;100.00
46718;BME280;32448;44.960;-0.698;2022-08-03T07:26:58;101076.22;;;23.10;100.00
46718;BME280;32448;44.960;-0.698;2022-08-03T07:29:24;101099.59;;;23.31;100.00
46718;BME280;32448;44.960;-0.698;2022-08-03T07:31:49;101100.91;;;23.46;100.00
46718;BME280;32448;44.960;-0.698;2022-08-03T07:34:15;101107.56;;;23.62;100.00
46718;BME280;32448;44.960;-0.698;2022-08-03T07:36:41;101115.72;;;23.85;100.00
46718;BME280;32448;44.960;-0.698;2022-08-03T07:39:06;101107.50;;;23.91;100.00
46718;BME280;32448;44.960;-0.698;2022-08-03T07:41:32;101119.09;;;24.18;100.00
46718;BME280;32448;44.960;-0.698;2022-08-03T07:43:57;101108.47;;;24.42;96.29
46718;BME280;32448;44.960;-0.698;2022-08-03T07:46:23;101106.22;;;24.56;94.43
46718;BME280;32448;44.960;-0.698;2022-08-03T07:48:49;101109.28;;;24.70;96.53
46718;BME280;32448;44.960;-0.698;2022-08-03T07:51:14;101101.28;;;24.95;88.96
46718;BME280;32448;44.960;-0.698;2022-08-03T07:53:40;101101.84;;;25.03;90.18
46718;BME280;32448;44.960;-0.698;2022-08-03T07:56:05;101108.22;;;25.22;87.51
46718;BME280;32448;44.960;-0.698;2022-08-03T07:58:31;101105.28;;;25.52;82.79
46718;BME280;32448;44.960;-0.698;2022-08-03T08:00:56;101108.84;;;25.52;86.03
46718;BME280;32448;44.960;-0.698;2022-08-03T08:03:22;101114.34;;;25.72;87.07
46718;BME280;32448;44.960;-0.698;2022-08-03T08:05:48;101094.38;;;26.01;75.03
46718;BME280;32448;44.960;-0.698;2022-08-03T08:08:14;101105.56;;;26.11;77.32
46718;BME280;32448;44.960;-0.698;2022-08-03T08:10:40;101094.34;;;26.23;77.69
46718;BME280;32448;44.960;-0.698;2022-08-03T08:13:05;101100.97;;;26.36;77.86
46718;BME280;32448;44.960;-0.698;2022-08-03T08:15:31;101097.69;;;26.50;76.75
46718;BME280;32448;44.960;-0.698;2022-08-03T08:17:58;101110.91;;;26.73;75.22
46718;BME280;32448;44.960;-0.698;2022-08-03T08:20:26;101094.84;;;26.94;68.02
46718;BME280;32448;44.960;-0.698;2022-08-03T08:22:55;101096.81;;;27.09;69.55
46718;BME280;32448;44.960;-0.698;2022-08-03T08:25:21;101094.66;;;27.36;66.57
46718;BME280;32448;44.960;-0.698;2022-08-03T08:27:48;101096.75;;;27.48;69.53
46718;BME280;32448;44.960;-0.698;2022-08-03T08:30:16;101085.59;;;27.57;69.98
46718;BME280;32448;44.960;-0.698;2022-08-03T08:32:44;101090.72;;;27.80;65.83
46718;BME280;32448;44.960;-0.698;2022-08-03T08:35:10;101096.03;;;27.99;65.95
46718;BME280;32448;44.960;-0.698;2022-08-03T08:37:36;101089.47;;;28.23;62.88
46718;BME280;32448;44.960;-0.698;2022-08-03T08:40:03;101094.38;;;28.50;62.63
46718;BME280;32448;44.960;-0.698;2022-08-03T08:42:30;101093.97;;;28.57;61.82
46718;BME280;32448;44.960;-0.698;2022-08-03T08:44:56;101090.28;;;28.76;60.59
46718;BME280;32448;44.960;-0.698;2022-08-03T08:47:25;101089.34;;;28.94;59.19
46718;BME280;32448;44.960;-0.698;2022-08-03T08:49:54;101060.84;;;28.90;59.48
46718;BME280;32448;44.960;-0.698;2022-08-03T08:52:24;101092.69;;;29.30;58.89
46718;BME280;32448;44.960;-0.698;2022-08-03T08:54:53;101079.69;;;29.54;56.94
46718;BME280;32448;44.960;-0.698;2022-08-03T08:57:21;101086.28;;;29.80;56.97
46718;BME280;32448;44.960;-0.698;2022-08-03T08:59:49;101087.56;;;29.89;56.17
46718;BME280;32448;44.960;-0.698;2022-08-03T09:02:16;101089.41;;;29.73;58.05
46718;BME280;32448;44.960;-0.698;2022-08-03T09:04:42;101091.97;;;29.60;55.42
46718;BME280;32448;44.960;-0.698;2022-08-03T09:07:09;101092.81;;;29.45;56.44
46718;BME280;32448;44.960;-0.698;2022-08-03T09:09:35;101081.78;;;29.49;55.74
46718;BME280;32448;44.960;-0.698;2022-08-03T09:12:00;101081.69;;;29.66;56.56
46718;BME280;32448;44.960;-0.698;2022-08-03T09:14:28;101078.50;;;30.05;50.71
46718;BME280;32448;44.960;-0.698;2022-08-03T09:16:55;101083.97;;;30.20;53.24
46718;BME280;32448;44.960;-0.698;2022-08-03T09:19:23;101084.78;;;30.50;48.66
46718;BME280;32448;44.960;-0.698;2022-08-03T09:22:06;101090.06;;;30.53;50.27
46718;BME280;32448;44.960;-0.698;2022-08-03T09:24:34;101090.41;;;30.47;48.28
46718;BME280;32448;44.960;-0.698;2022-08-03T09:27:00;101071.06;;;30.55;49.34
46718;BME280;32448;44.960;-0.698;2022-08-03T09:29:31;101081.78;;;30.85;48.79
46718;BME280;32448;44.960;-0.698;2022-08-03T09:32:02;101071.47;;;31.05;48.33
46718;BME280;32448;44.960;-0.698;2022-08-03T09:34:29;101092.41;;;31.30;47.21
46718;BME280;32448;44.960;-0.698;2022-08-03T09:36:54;101090.38;;;31.48;45.85
46718;BME280;32448;44.960;-0.698;2022-08-03T09:39:24;101057.09;;;31.33;45.87
46718;BME280;32448;44.960;-0.698;2022-08-03T09:42:16;101088.47;;;31.77;47.83
46718;BME280;32448;44.960;-0.698;2022-08-03T09:44:47;101094.22;;;31.85;41.98
46718;BME280;32448;44.960;-0.698;2022-08-03T09:47:15;101102.28;;;31.99;42.78
46718;BME280;32448;44.960;-0.698;2022-08-03T09:49:41;101093.88;;;32.16;43.85
46718;BME280;32448;44.960;-0.698;2022-08-03T09:52:20;101087.81;;;32.40;41.88
46718;BME280;32448;44.960;-0.698;2022-08-03T09:54:53;101089.75;;;32.50;38.98
46718;BME280;32448;44.960;-0.698;2022-08-03T09:57:21;101089.25;;;32.58;39.69
46718;BME280;32448;44.960;-0.698;2022-08-03T09:59:47;101093.28;;;32.78;39.38
46718;BME280;32448;44.960;-0.698;2022-08-03T10:02:21;101098.25;;;32.84;40.32
46718;BME280;32448;44.960;-0.698;2022-08-03T10:04:48;101087.31;;;32.98;38.20
46718;BME280;32448;44.960;-0.698;2022-08-03T10:07:21;101081.88;;;33.11;37.41
46718;BME280;32448;44.960;-0.698;2022-08-03T10:09:57;101089.16;;;33.10;38.51
46718;BME280;32448;44.960;-0.698;2022-08-03T10:12:23;101086.34;;;32.99;40.30
46718;BME280;32448;44.960;-0.698;2022-08-03T10:14:49;101083.81;;;33.21;38.34
46718;BME280;32448;44.960;-0.698;2022-08-03T10:17:15;101084.22;;;33.41;37.11
46718;BME280;32448;44.960;-0.698;2022-08-03T10:19:40;101084.63;;;33.47;37.36
46718;BME280;32448;44.960;-0.698;2022-08-03T10:22:25;101087.00;;;33.52;38.90
46718;BME280;32448;44.960;-0.698;2022-08-03T10:25:03;101083.69;;;33.72;36.68
46718;BME280;32448;44.960;-0.698;2022-08-03T10:27:33;101094.72;;;33.82;36.43
46718;BME280;32448;44.960;-0.698;2022-08-03T10:30:05;101083.53;;;33.86;36.02
46718;BME280;32448;44.960;-0.698;2022-08-03T10:32:37;101083.06;;;33.92;35.23
46718;BME280;32448;44.960;-0.698;2022-08-03T10:37:40;101090.28;;;34.28;35.88
46718;BME280;32448;44.960;-0.698;2022-08-03T10:40:07;101085.50;;;34.32;33.34
46718;BME280;32448;44.960;-0.698;2022-08-03T10:42:34;101067.25;;;34.34;34.96
46718;BME280;32448;44.960;-0.698;2022-08-03T10:45:07;101063.31;;;34.49;33.02
46718;BME280;32448;44.960;-0.698;2022-08-03T10:47:34;101083.09;;;34.74;34.19
46718;BME280;32448;44.960;-0.698;2022-08-03T10:50:01;101068.53;;;34.75;30.61
46718;BME280;32448;44.960;-0.698;2022-08-03T10:52:27;101062.28;;;34.85;31.83
46718;BME280;32448;44.960;-0.698;2022-08-03T10:54:53;101081.66;;;35.03;29.76
46718;BME280;32448;44.960;-0.698;2022-08-03T10:57:51;101079.81;;;35.03;30.89
46718;BME280;32448;44.960;-0.698;2022-08-03T11:00:23;101071.91;;;34.89;29.79
46718;BME280;32448;44.960;-0.698;2022-08-03T11:05:44;101073.78;;;34.89;27.51
46718;BME280;32448;44.960;-0.698;2022-08-03T11:08:29;101049.91;;;35.03;24.58
46718;BME280;32448;44.960;-0.698;2022-08-03T11:11:01;101065.34;;;35.14;26.83
46718;BME280;32448;44.960;-0.698;2022-08-03T11:13:29;101072.28;;;35.29;28.33
46718;BME280;32448;44.960;-0.698;2022-08-03T11:15:58;101073.63;;;35.35;26.38
46718;BME280;32448;44.960;-0.698;2022-08-03T11:18:24;101063.00;;;35.43;26.39
46718;BME280;32448;44.960;-0.698;2022-08-03T11:20:58;101061.75;;;35.47;26.28
46718;BME280;32448;44.960;-0.698;2022-08-03T11:26:13;101066.91;;;35.61;28.11
46718;BME280;32448;44.960;-0.698;2022-08-03T11:28:41;101065.91;;;35.62;23.88
46718;BME280;32448;44.960;-0.698;2022-08-03T11:34:07;101049.59;;;35.73;23.70
46718;BME280;32448;44.960;-0.698;2022-08-03T11:39:44;101058.28;;;35.99;24.34
46718;BME280;32448;44.960;-0.698;2022-08-03T11:44:59;101029.09;;;35.90;24.15
46718;BME280;32448;44.960;-0.698;2022-08-03T11:47:26;101048.38;;;35.98;23.73
46718;BME280;32448;44.960;-0.698;2022-08-03T11:49:55;101048.75;;;35.94;23.41
46718;BME280;32448;44.960;-0.698;2022-08-03T11:52:23;101035.09;;;36.05;25.95
46718;BME280;32448;44.960;-0.698;2022-08-03T11:54:53;101041.03;;;36.10;25.91
46718;BME280;32448;44.960;-0.698;2022-08-03T11:57:46;101047.31;;;36.22;25.29
46718;BME280;32448;44.960;-0.698;2022-08-03T12:00:29;101041.50;;;36.36;25.30
46718;BME280;32448;44.960;-0.698;2022-08-03T12:02:56;101045.09;;;36.36;24.94
46718;BME280;32448;44.960;-0.698;2022-08-03T12:05:47;101037.00;;;36.25;24.14
46718;BME280;32448;44.960;-0.698;2022-08-03T12:08:15;101023.59;;;36.01;24.44
46718;BME280;32448;44.960;-0.698;2022-08-03T12:10:49;101039.06;;;36.33;25.43
46718;BME280;32448;44.960;-0.698;2022-08-03T12:13:16;101043.16;;;36.48;24.93
46718;BME280;32448;44.960;-0.698;2022-08-03T12:15:42;101029.41;;;36.50;24.01
46718;BME280;32448;44.960;-0.698;2022-08-03T12:18:15;101038.44;;;36.50;22.92
46718;BME280;32448;44.960;-0.698;2022-08-03T12:20:42;101032.88;;;36.72;24.41
46718;BME280;32448;44.960;-0.698;2022-08-03T12:23:09;101026.31;;;36.85;24.33
46718;BME280;32448;44.960;-0.698;2022-08-03T12:25:37;101021.66;;;37.06;23.24
46718;BME280;32448;44.960;-0.698;2022-08-03T12:28:20;101024.19;;;37.18;23.23
46718;BME280;32448;44.960;-0.698;2022-08-03T12:30:50;101018.34;;;37.33;23.47
46718;BME280;32448;44.960;-0.698;2022-08-03T12:33:22;101017.88;;;37.28;23.14
46718;BME280;32448;44.960;-0.698;2022-08-03T12:36:00;101013.56;;;37.25;22.04
46718;BME280;32448;44.960;-0.698;2022-08-03T12:38:27;100998.91;;;37.16;22.33
46718;BME280;32448;44.960;-0.698;2022-08-03T12:41:04;101005.69;;;37.22;22.98
46718;BME280;32448;44.960;-0.698;2022-08-03T12:43:30;100980.19;;;37.02;23.91
46718;BME280;32448;44.960;-0.698;2022-08-03T12:46:13;101001.97;;;36.93;22.71
46718;BME280;32448;44.960;-0.698;2022-08-03T12:48:58;100999.19;;;36.73;24.37
46718;BME280;32448;44.960;-0.698;2022-08-03T12:51:25;100994.91;;;36.60;24.85
46718;BME280;32448;44.960;-0.698;2022-08-03T12:53:53;100996.22;;;36.56;24.05
46718;BME280;32448;44.960;-0.698;2022-08-03T12:56:18;101004.50;;;36.54;23.91
46718;BME280;32448;44.960;-0.698;2022-08-03T12:58:45;100993.88;;;36.51;24.66
46718;BME280;32448;44.960;-0.698;2022-08-03T13:01:12;100997.19;;;36.55;24.92
46718;BME280;32448;44.960;-0.698;2022-08-03T13:03:42;100989.94;;;36.65;25.22
46718;BME280;32448;44.960;-0.698;2022-08-03T13:06:19;100992.88;;;36.73;23.01
46718;BME280;32448;44.960;-0.698;2022-08-03T13:08:45;100987.78;;;36.89;24.76
46718;BME280;32448;44.960;-0.698;2022-08-03T13:11:22;100989.91;;;36.86;23.48